BUICK30 LIED-LIED
Flight info
| Callsign | BUICK30 |
|---|---|
| Flight time | 0h 16m |
| Altitude | 2000 |
| Route | TRAFFIC PATTERNS |
| Aircraft | F35/L-V/N |
Departure
| Time | 2026-05-04 17:44 |
|---|---|
| Airport | Decimomannu Air Base (LIED) |
Arrival
| Time | 2026-05-04 18:01 |
|---|---|
| Airport | Decimomannu Air Base (LIED) |
| Time | Latitude | Longitude | Altitude | Speed | Heading |
|---|---|---|---|---|---|
| 2026-05-04 17:34 | 39.35906 | 8.96710 | 94 ft | 0 kts | 257° |
| 2026-05-04 17:39 | 39.35905 | 8.96706 | 94 ft | 1 kts | 257° |
| 2026-05-04 17:39 | 39.35919 | 8.96683 | 96 ft | 5 kts | 340° |
| 2026-05-04 17:39 | 39.35938 | 8.96720 | 95 ft | 6 kts | 105° |
| 2026-05-04 17:40 | 39.35917 | 8.96767 | 95 ft | 9 kts | 77° |
| 2026-05-04 17:40 | 39.35942 | 8.96905 | 96 ft | 19 kts | 77° |
| 2026-05-04 17:40 | 39.36009 | 8.96944 | 97 ft | 16 kts | 347° |
| 2026-05-04 17:40 | 39.36149 | 8.96902 | 98 ft | 22 kts | 347° |
| 2026-05-04 17:41 | 39.36310 | 8.96854 | 102 ft | 27 kts | 348° |
| 2026-05-04 17:41 | 39.36455 | 8.96811 | 98 ft | 21 kts | 347° |
| 2026-05-04 17:41 | 39.36565 | 8.96785 | 97 ft | 9 kts | 16° |
| 2026-05-04 17:41 | 39.36608 | 8.96847 | 96 ft | 11 kts | 73° |
| 2026-05-04 17:42 | 39.36607 | 8.96896 | 95 ft | 0 kts | 134° |
| 2026-05-04 17:43 | 39.36593 | 8.96923 | 94 ft | 9 kts | 107° |
| 2026-05-04 17:43 | 39.36610 | 8.97005 | 95 ft | 7 kts | 96° |
| 2026-05-04 17:43 | 39.36596 | 8.97017 | 93 ft | 0 kts | 167° |
| 2026-05-04 17:44 | 39.36565 | 8.97026 | 94 ft | 53 kts | 166° |
| 2026-05-04 17:44 | 39.35327 | 8.97408 | 563 ft | 256 kts | 166° |
| 2026-05-04 17:44 | 39.33685 | 8.97916 | 1795 ft | 254 kts | 168° |
| 2026-05-04 17:44 | 39.31942 | 8.98112 | 1952 ft | 249 kts | 199° |
| 2026-05-04 17:45 | 39.30767 | 8.96649 | 1892 ft | 241 kts | 250° |
| 2026-05-04 17:45 | 39.30760 | 8.94422 | 1879 ft | 264 kts | 293° |
| 2026-05-04 17:45 | 39.32019 | 8.92780 | 1977 ft | 262 kts | 333° |
| 2026-05-04 17:45 | 39.33769 | 8.92108 | 1984 ft | 265 kts | 343° |
| 2026-05-04 17:46 | 39.35567 | 8.91505 | 1976 ft | 269 kts | 344° |
| 2026-05-04 17:46 | 39.37398 | 8.90911 | 1980 ft | 273 kts | 344° |
| 2026-05-04 17:46 | 39.39245 | 8.90319 | 1996 ft | 276 kts | 344° |
| 2026-05-04 17:46 | 39.41125 | 8.89756 | 2020 ft | 274 kts | 0° |
| 2026-05-04 17:47 | 39.42663 | 8.90927 | 1998 ft | 264 kts | 55° |
| 2026-05-04 17:47 | 39.43436 | 8.93043 | 1971 ft | 266 kts | 69° |
| 2026-05-04 17:47 | 39.43630 | 8.95189 | 2011 ft | 217 kts | 142° |
| 2026-05-04 17:47 | 39.42150 | 8.95605 | 1851 ft | 291 kts | 179° |
| 2026-05-04 17:48 | 39.39955 | 8.96007 | 1636 ft | 324 kts | 167° |
| 2026-05-04 17:48 | 39.37768 | 8.96695 | 1495 ft | 317 kts | 168° |
| 2026-05-04 17:48 | 39.35682 | 8.97023 | 1521 ft | 279 kts | 204° |
| 2026-05-04 17:48 | 39.35092 | 8.95247 | 1535 ft | 212 kts | 301° |
| 2026-05-04 17:49 | 39.36204 | 8.94526 | 1499 ft | 162 kts | 341° |
| 2026-05-04 17:49 | 39.37361 | 8.94142 | 1409 ft | 174 kts | 5° |
| 2026-05-04 17:49 | 39.38182 | 8.95109 | 1034 ft | 178 kts | 85° |
| 2026-05-04 17:49 | 39.37703 | 8.96541 | 651 ft | 182 kts | 145° |
| 2026-05-04 17:50 | 39.36512 | 8.97043 | 113 ft | 169 kts | 166° |
| 2026-05-04 17:50 | 39.35443 | 8.97358 | 221 ft | 204 kts | 167° |
| 2026-05-04 17:50 | 39.33575 | 8.97842 | 1765 ft | 299 kts | 171° |
| 2026-05-04 17:50 | 39.31672 | 8.97353 | 1768 ft | 282 kts | 237° |
| 2026-05-04 17:51 | 39.32017 | 8.95491 | 1498 ft | 224 kts | 341° |
| 2026-05-04 17:51 | 39.33523 | 8.94968 | 1494 ft | 227 kts | 344° |
| 2026-05-04 17:51 | 39.35072 | 8.94475 | 1502 ft | 229 kts | 344° |
| 2026-05-04 17:51 | 39.36503 | 8.94030 | 1485 ft | 191 kts | 345° |
| 2026-05-04 17:52 | 39.37722 | 8.94177 | 1223 ft | 179 kts | 42° |
| 2026-05-04 17:52 | 39.38146 | 8.95537 | 733 ft | 159 kts | 103° |
| 2026-05-04 17:52 | 39.37513 | 8.96695 | 381 ft | 175 kts | 152° |
| 2026-05-04 17:52 | 39.36388 | 8.97081 | 102 ft | 160 kts | 167° |
| 2026-05-04 17:53 | 39.35276 | 8.97408 | 327 ft | 222 kts | 167° |
| 2026-05-04 17:53 | 39.33475 | 8.97914 | 1554 ft | 268 kts | 169° |
| 2026-05-04 17:53 | 39.31614 | 8.98426 | 1899 ft | 279 kts | 166° |
| 2026-05-04 17:53 | 39.29939 | 8.99866 | 1962 ft | 332 kts | 136° |
| 2026-05-04 17:54 | 39.28127 | 9.01972 | 1912 ft | 353 kts | 139° |
| 2026-05-04 17:54 | 39.26341 | 9.04039 | 1476 ft | 338 kts | 139° |
| 2026-05-04 17:54 | 39.24419 | 9.05232 | 1501 ft | 288 kts | 194° |
| 2026-05-04 17:54 | 39.23515 | 9.03620 | 1522 ft | 214 kts | 291° |
| 2026-05-04 17:55 | 39.24473 | 9.02534 | 1518 ft | 168 kts | 326° |
| 2026-05-04 17:55 | 39.25398 | 9.01696 | 1496 ft | 161 kts | 319° |
| 2026-05-04 17:55 | 39.26338 | 9.01117 | 1246 ft | 149 kts | 13° |
| 2026-05-04 17:55 | 39.27114 | 9.02121 | 736 ft | 176 kts | 83° |
| 2026-05-04 17:56 | 39.26751 | 9.03562 | 305 ft | 170 kts | 136° |
| 2026-05-04 17:56 | 39.25905 | 9.04552 | 18 ft | 152 kts | 140° |
| 2026-05-04 17:56 | 39.25098 | 9.05477 | 246 ft | 214 kts | 140° |
| 2026-05-04 17:56 | 39.23775 | 9.06861 | 1537 ft | 250 kts | 154° |
| 2026-05-04 17:57 | 39.22201 | 9.06627 | 2054 ft | 241 kts | 234° |
| 2026-05-04 17:57 | 39.22256 | 9.04694 | 2089 ft | 237 kts | 314° |
| 2026-05-04 17:57 | 39.23652 | 9.03360 | 2092 ft | 254 kts | 324° |
| 2026-05-04 17:57 | 39.25139 | 9.02043 | 2097 ft | 264 kts | 324° |
| 2026-05-04 17:58 | 39.26674 | 9.00699 | 2094 ft | 276 kts | 324° |
| 2026-05-04 17:58 | 39.28379 | 8.99562 | 2081 ft | 285 kts | 342° |
| 2026-05-04 17:58 | 39.30567 | 8.98842 | 2002 ft | 365 kts | 346° |
| 2026-05-04 17:58 | 39.33070 | 8.98089 | 1472 ft | 367 kts | 346° |
| 2026-05-04 17:59 | 39.35322 | 8.97003 | 1555 ft | 319 kts | 306° |
| 2026-05-04 17:59 | 39.35166 | 8.94812 | 1558 ft | 236 kts | 206° |
| 2026-05-04 17:59 | 39.32638 | 8.95610 | 1391 ft | 174 kts | 143° |
| 2026-05-04 18:00 | 39.32387 | 8.97011 | 837 ft | 177 kts | 65° |
| 2026-05-04 18:00 | 39.33386 | 8.97873 | 368 ft | 181 kts | 6° |
| 2026-05-04 18:00 | 39.34584 | 8.97617 | 94 ft | 154 kts | 347° |
| 2026-05-04 18:00 | 39.35374 | 8.97382 | 92 ft | 93 kts | 347° |
| 2026-05-04 18:01 | 39.35908 | 8.97223 | 94 ft | 68 kts | 347° |
| 2026-05-04 18:01 | 39.36314 | 8.97101 | 95 ft | 43 kts | 348° |
| 2026-05-04 18:01 | 39.36449 | 8.97038 | 97 ft | 12 kts | 284° |
| 2026-05-04 18:02 | 39.36406 | 8.96836 | 99 ft | 13 kts | 220° |
| 2026-05-04 18:02 | 39.36304 | 8.96856 | 102 ft | 22 kts | 167° |
| 2026-05-04 18:02 | 39.36093 | 8.96919 | 97 ft | 38 kts | 167° |
| 2026-05-04 18:02 | 39.35944 | 8.96916 | 97 ft | 15 kts | 256° |
| 2026-05-04 18:03 | 39.35920 | 8.96784 | 96 ft | 16 kts | 257° |
| 2026-05-04 18:03 | 39.35872 | 8.96747 | 94 ft | 8 kts | 193° |
| 2026-05-04 18:03 | 39.35862 | 8.96726 | 96 ft | 0 kts | 258° |